Pagrindinis puslapis
METAR-TAF:

METAR-TAF

Oro uostai :

Pekino tarptautinis oro uostas

Pekinas, Kinija

platuma: 39-56N, ilguma: 116-17E, Aukštis: 55 m

Dabartinis oras

Ataskaita buvo paskelbta 37 minutes, ne 15:30 UTC
Vėjas 8 kt iš Šiaurės
Temperatūra 11°C
Drėgmė 40%
Slėgis 1021 hPa
Matomumas 10 km arba daugiau
nėra debesų žemiau 1500 m ir nėra kamuolinių lietaus debesų

METAR: ZBAA 201530Z 35004MPS CAVOK 11/M02 Q1021 NOSIG

Laikas: 00:07 (16:07 UTC)

Prognozė

Ataskaita buvo paskelbta 6 valandos ir 37 minutes, ne 09:30 UTC
Prognozė galioja nuo 20 metu 12 UTC su 21 metu 12 UTC
Vėjas 8 kt iš Šiaurės
Matomumas 10 km arba daugiau
nėra debesų žemiau 1500 m ir nėra kamuolinių lietaus debesų

TAF: ZBAA 200930Z 2012/2112 36004MPS CAVOK TX22/2107Z TN06/2021Z

Orai ataskaitas ir orų prognozės (METAR, TAF).

turimą stotys yra geltonos ir raudonos taškus žemėlapyje.

Perkelti pele per norėdami pamatyti stoties vardą.

Tada spustelėkite, norėdami matyti oro stebėjimo ir prognozės.

Norėdami pakeisti žemėlapį: spustelėkite ant žalios mygtukų su juodo kryžiaus žemyn,; žalią mygtuką su brūkšneliu, jei norite nutolinti; arba žalių rodyklių gretimoms žemėlapius.


METAR-TAF: